Dobbins Air Reserve Base Airport
KMGE : rendu visible

Aérodrome :











RETROUVEZ-NOUS SUR...

 
LOGIN :

S'inscrire | Disclaimer

   EN    FR    IT 

 









Légende :    VFR   VFR Marginal   IFR   IFR Intensif   IFR Très Intensif
Visi : 
Plafond : 
>= 8 km
>= 3000ft
5 à 8 km
1000 à 3000 ft
1500m à 5 km
500 à 1000 ft
800 à 1500m
200 à 500 ft
< 800m
< 200 ft
Symboles :   Orages  Brouillard  Fortes neiges  Fortes précipitations  Vent > 20 kt






- Altitude de l'aérodrome : 1068 ft


KMGE - Dobbins Air Reserve Base

DERNIER METAR :
  • 201856Z 33006KT 10SM SCT250 17/01 A3016 RMK AO2A SLP214 T01650014 $

METARs EXPIRÉS :
  • 201756Z 33006KT 10SM SCT250 16/01 A3017 RMK AO2A SLP217 CONTRAILS T01570014 10157 20068 58007 $
  • 201656Z 34006KT 10SM FEW250 14/02 A3019 RMK AO2A SLP225 T01430019 $

TAF TAF KMGE
Valide du 20 à 14h jusqu'au 21 à 20h UTC


201413Z 2014/2120 32009KT 9999 FEW250 QNH3017INS
BECMG 2103/2104 VRB05KT 9999 FEW250 QNH3023INS
BECMG 2114/2115 15005KT 9999 SCT120 SCT250 QNH3031INS TX17/2021Z TN06/2112Z



MET'MAP, la Météo Aéronautique d'un coup d'oeil ! - Copyright ORBIFLY Décembre 2007 - Disclaimer

ORBIFLY MET'MAP TEAM :

Programmation & Développement : Alexandra Zaïnal
Conception & Développement : Baudouin d'Aumeries
Co-Programmation & Développement : Marc-Olivier Méhu
Soutien technique & logistique : Manuel Goepfert

Contact : metmap@orbifly.com




SOURCES & CREDITS :

   NOAA       Earth
Advisory